sensor_id;sensor_type;location;lat;lon;timestamp;P1;durP1;ratioP1;P2;durP2;ratioP2
75061;SDS011;63641;46.526;24.612;2023-05-17T00:02:04;5.18;;;2.08;;
75061;SDS011;63641;46.526;24.612;2023-05-17T00:04:31;3.80;;;1.73;;
75061;SDS011;63641;46.526;24.612;2023-05-17T00:06:59;4.85;;;1.70;;
75061;SDS011;63641;46.526;24.612;2023-05-17T00:09:26;4.88;;;1.75;;
75061;SDS011;63641;46.526;24.612;2023-05-17T00:11:53;8.13;;;1.85;;
75061;SDS011;63641;46.526;24.612;2023-05-17T00:14:19;4.80;;;2.03;;
75061;SDS011;63641;46.526;24.612;2023-05-17T00:16:46;4.60;;;1.70;;
75061;SDS011;63641;46.526;24.612;2023-05-17T00:19:13;5.88;;;1.77;;
75061;SDS011;63641;46.526;24.612;2023-05-17T00:21:40;4.43;;;1.60;;
75061;SDS011;63641;46.526;24.612;2023-05-17T00:24:06;4.40;;;1.80;;
75061;SDS011;63641;46.526;24.612;2023-05-17T00:26:34;4.00;;;2.00;;
75061;SDS011;63641;46.526;24.612;2023-05-17T00:29:01;4.32;;;2.50;;
75061;SDS011;63641;46.526;24.612;2023-05-17T00:31:28;5.30;;;1.70;;
75061;SDS011;63641;46.526;24.612;2023-05-17T00:33:55;4.93;;;1.70;;
75061;SDS011;63641;46.526;24.612;2023-05-17T00:36:22;4.15;;;1.80;;
75061;SDS011;63641;46.526;24.612;2023-05-17T00:38:48;7.18;;;2.13;;
75061;SDS011;63641;46.526;24.612;2023-05-17T00:41:16;4.97;;;1.85;;
75061;SDS011;63641;46.526;24.612;2023-05-17T00:43:43;6.13;;;1.70;;
75061;SDS011;63641;46.526;24.612;2023-05-17T00:46:09;4.88;;;1.50;;
75061;SDS011;63641;46.526;24.612;2023-05-17T00:48:39;4.85;;;2.00;;
75061;SDS011;63641;46.526;24.612;2023-05-17T00:51:06;4.78;;;2.30;;
75061;SDS011;63641;46.526;24.612;2023-05-17T00:53:33;3.88;;;1.83;;
75061;SDS011;63641;46.526;24.612;2023-05-17T00:56:04;6.90;;;1.70;;
75061;SDS011;63641;46.526;24.612;2023-05-17T00:58:31;3.88;;;1.55;;
75061;SDS011;63641;46.526;24.612;2023-05-17T01:00:59;3.75;;;1.40;;
75061;SDS011;63641;46.526;24.612;2023-05-17T01:03:26;7.25;;;1.90;;
75061;SDS011;63641;46.526;24.612;2023-05-17T01:05:53;2.42;;;1.20;;
75061;SDS011;63641;46.526;24.612;2023-05-17T01:08:20;5.32;;;1.30;;
75061;SDS011;63641;46.526;24.612;2023-05-17T01:11:10;5.13;;;1.48;;
75061;SDS011;63641;46.526;24.612;2023-05-17T01:13:58;2.85;;;1.63;;
75061;SDS011;63641;46.526;24.612;2023-05-17T01:16:38;2.55;;;1.30;;
75061;SDS011;63641;46.526;24.612;2023-05-17T01:27:26;2.80;;;1.50;;
75061;SDS011;63641;46.526;24.612;2023-05-17T01:29:54;5.20;;;1.45;;
75061;SDS011;63641;46.526;24.612;2023-05-17T01:32:22;4.88;;;1.30;;
75061;SDS011;63641;46.526;24.612;2023-05-17T01:34:50;2.00;;;1.27;;
75061;SDS011;63641;46.526;24.612;2023-05-17T01:37:17;2.28;;;1.10;;
75061;SDS011;63641;46.526;24.612;2023-05-17T01:39:44;2.08;;;1.13;;
75061;SDS011;63641;46.526;24.612;2023-05-17T01:45:20;2.95;;;1.00;;
75061;SDS011;63641;46.526;24.612;2023-05-17T01:50:35;2.08;;;1.20;;
75061;SDS011;63641;46.526;24.612;2023-05-17T01:53:06;1.50;;;0.98;;
75061;SDS011;63641;46.526;24.612;2023-05-17T01:58:13;2.60;;;1.20;;
75061;SDS011;63641;46.526;24.612;2023-05-17T02:00:43;2.80;;;1.17;;
75061;SDS011;63641;46.526;24.612;2023-05-17T02:03:17;1.65;;;0.98;;
75061;SDS011;63641;46.526;24.612;2023-05-17T02:05:45;2.08;;;1.38;;
75061;SDS011;63641;46.526;24.612;2023-05-17T02:08:12;2.67;;;1.23;;
75061;SDS011;63641;46.526;24.612;2023-05-17T02:10:39;1.40;;;1.00;;
75061;SDS011;63641;46.526;24.612;2023-05-17T02:13:06;2.47;;;1.25;;
75061;SDS011;63641;46.526;24.612;2023-05-17T02:15:33;1.58;;;1.00;;
75061;SDS011;63641;46.526;24.612;2023-05-17T02:17:59;4.15;;;1.33;;
75061;SDS011;63641;46.526;24.612;2023-05-17T02:20:26;1.13;;;1.05;;
75061;SDS011;63641;46.526;24.612;2023-05-17T02:22:53;2.38;;;1.33;;
75061;SDS011;63641;46.526;24.612;2023-05-17T02:25:20;2.63;;;1.25;;
75061;SDS011;63641;46.526;24.612;2023-05-17T02:27:47;5.32;;;1.20;;
75061;SDS011;63641;46.526;24.612;2023-05-17T02:30:14;1.45;;;1.20;;
75061;SDS011;63641;46.526;24.612;2023-05-17T02:32:43;2.33;;;1.10;;
75061;SDS011;63641;46.526;24.612;2023-05-17T02:35:10;1.88;;;1.27;;
75061;SDS011;63641;46.526;24.612;2023-05-17T02:37:37;2.38;;;1.30;;
75061;SDS011;63641;46.526;24.612;2023-05-17T02:40:05;2.50;;;1.25;;
75061;SDS011;63641;46.526;24.612;2023-05-17T02:42:35;3.25;;;1.45;;
75061;SDS011;63641;46.526;24.612;2023-05-17T02:45:02;1.83;;;1.42;;
75061;SDS011;63641;46.526;24.612;2023-05-17T02:47:29;3.85;;;1.13;;
75061;SDS011;63641;46.526;24.612;2023-05-17T02:49:56;3.58;;;1.10;;
75061;SDS011;63641;46.526;24.612;2023-05-17T02:52:22;4.85;;;1.13;;
75061;SDS011;63641;46.526;24.612;2023-05-17T02:54:49;1.63;;;1.15;;
75061;SDS011;63641;46.526;24.612;2023-05-17T02:57:16;3.15;;;1.38;;
75061;SDS011;63641;46.526;24.612;2023-05-17T02:59:43;33.15;;;3.45;;
75061;SDS011;63641;46.526;24.612;2023-05-17T03:02:11;1.45;;;1.35;;
75061;SDS011;63641;46.526;24.612;2023-05-17T03:04:37;2.35;;;1.30;;
75061;SDS011;63641;46.526;24.612;2023-05-17T03:07:04;3.55;;;1.27;;
75061;SDS011;63641;46.526;24.612;2023-05-17T03:09:32;3.85;;;1.55;;
75061;SDS011;63641;46.526;24.612;2023-05-17T03:11:59;1.60;;;1.50;;
75061;SDS011;63641;46.526;24.612;2023-05-17T03:14:26;1.60;;;1.23;;
75061;SDS011;63641;46.526;24.612;2023-05-17T03:16:53;2.10;;;1.20;;
75061;SDS011;63641;46.526;24.612;2023-05-17T03:19:20;1.42;;;1.13;;
75061;SDS011;63641;46.526;24.612;2023-05-17T03:21:47;3.47;;;2.13;;
75061;SDS011;63641;46.526;24.612;2023-05-17T03:24:14;1.80;;;1.70;;
75061;SDS011;63641;46.526;24.612;2023-05-17T03:26:41;2.42;;;1.70;;
75061;SDS011;63641;46.526;24.612;2023-05-17T03:29:07;1.58;;;1.27;;
75061;SDS011;63641;46.526;24.612;2023-05-17T03:31:34;3.20;;;1.33;;
75061;SDS011;63641;46.526;24.612;2023-05-17T03:34:01;1.85;;;1.25;;
75061;SDS011;63641;46.526;24.612;2023-05-17T03:36:28;3.90;;;1.20;;
75061;SDS011;63641;46.526;24.612;2023-05-17T03:38:54;1.55;;;1.40;;
75061;SDS011;63641;46.526;24.612;2023-05-17T03:41:21;1.40;;;1.10;;
75061;SDS011;63641;46.526;24.612;2023-05-17T03:43:48;3.33;;;1.38;;
75061;SDS011;63641;46.526;24.612;2023-05-17T03:46:15;1.63;;;1.42;;
75061;SDS011;63641;46.526;24.612;2023-05-17T03:48:41;1.75;;;1.60;;
75061;SDS011;63641;46.526;24.612;2023-05-17T03:51:10;3.30;;;1.55;;
75061;SDS011;63641;46.526;24.612;2023-05-17T03:53:37;2.90;;;1.60;;
75061;SDS011;63641;46.526;24.612;2023-05-17T03:56:09;2.38;;;1.63;;
75061;SDS011;63641;46.526;24.612;2023-05-17T03:58:36;3.28;;;1.70;;
75061;SDS011;63641;46.526;24.612;2023-05-17T04:01:03;2.92;;;1.50;;
75061;SDS011;63641;46.526;24.612;2023-05-17T04:03:30;2.65;;;1.50;;
75061;SDS011;63641;46.526;24.612;2023-05-17T04:06:02;2.58;;;1.58;;
75061;SDS011;63641;46.526;24.612;2023-05-17T04:08:32;2.15;;;1.65;;
75061;SDS011;63641;46.526;24.612;2023-05-17T04:10:59;1.52;;;1.38;;
75061;SDS011;63641;46.526;24.612;2023-05-17T04:13:35;4.28;;;1.92;;
75061;SDS011;63641;46.526;24.612;2023-05-17T04:16:08;2.08;;;1.60;;
75061;SDS011;63641;46.526;24.612;2023-05-17T04:18:36;2.17;;;1.83;;
75061;SDS011;63641;46.526;24.612;2023-05-17T04:21:04;1.50;;;1.35;;
75061;SDS011;63641;46.526;24.612;2023-05-17T04:23:33;3.78;;;2.08;;
75061;SDS011;63641;46.526;24.612;2023-05-17T04:26:00;2.53;;;1.50;;
75061;SDS011;63641;46.526;24.612;2023-05-17T04:28:29;3.05;;;1.67;;
75061;SDS011;63641;46.526;24.612;2023-05-17T04:30:56;2.17;;;1.67;;
75061;SDS011;63641;46.526;24.612;2023-05-17T04:33:23;3.22;;;1.83;;
75061;SDS011;63641;46.526;24.612;2023-05-17T04:35:53;2.40;;;1.77;;
75061;SDS011;63641;46.526;24.612;2023-05-17T04:38:20;1.83;;;1.50;;
75061;SDS011;63641;46.526;24.612;2023-05-17T04:40:46;2.50;;;1.77;;
75061;SDS011;63641;46.526;24.612;2023-05-17T04:43:13;2.47;;;1.60;;
75061;SDS011;63641;46.526;24.612;2023-05-17T04:45:40;1.80;;;1.70;;
75061;SDS011;63641;46.526;24.612;2023-05-17T04:48:07;5.28;;;1.92;;
75061;SDS011;63641;46.526;24.612;2023-05-17T04:50:35;1.90;;;1.80;;
75061;SDS011;63641;46.526;24.612;2023-05-17T04:53:01;5.97;;;1.88;;
75061;SDS011;63641;46.526;24.612;2023-05-17T04:55:28;2.05;;;1.55;;
75061;SDS011;63641;46.526;24.612;2023-05-17T04:57:55;2.17;;;1.70;;
75061;SDS011;63641;46.526;24.612;2023-05-17T05:00:22;1.98;;;1.60;;
75061;SDS011;63641;46.526;24.612;2023-05-17T05:02:53;3.28;;;1.50;;
75061;SDS011;63641;46.526;24.612;2023-05-17T05:05:20;1.83;;;1.52;;
75061;SDS011;63641;46.526;24.612;2023-05-17T05:07:47;1.60;;;1.50;;
75061;SDS011;63641;46.526;24.612;2023-05-17T05:10:14;1.65;;;1.55;;
75061;SDS011;63641;46.526;24.612;2023-05-17T05:12:44;2.80;;;1.50;;
75061;SDS011;63641;46.526;24.612;2023-05-17T05:15:10;2.70;;;1.92;;
75061;SDS011;63641;46.526;24.612;2023-05-17T05:17:37;1.95;;;1.58;;
75061;SDS011;63641;46.526;24.612;2023-05-17T05:20:04;3.38;;;1.83;;
75061;SDS011;63641;46.526;24.612;2023-05-17T05:22:32;3.17;;;1.80;;
75061;SDS011;63641;46.526;24.612;2023-05-17T05:24:59;4.63;;;2.17;;
75061;SDS011;63641;46.526;24.612;2023-05-17T05:27:26;1.70;;;1.60;;
75061;SDS011;63641;46.526;24.612;2023-05-17T05:29:53;2.13;;;1.70;;
75061;SDS011;63641;46.526;24.612;2023-05-17T05:32:20;2.25;;;1.67;;
75061;SDS011;63641;46.526;24.612;2023-05-17T05:34:47;3.33;;;1.50;;
75061;SDS011;63641;46.526;24.612;2023-05-17T05:37:14;2.47;;;1.40;;
75061;SDS011;63641;46.526;24.612;2023-05-17T05:39:44;2.17;;;1.33;;
75061;SDS011;63641;46.526;24.612;2023-05-17T05:42:11;2.25;;;1.48;;
75061;SDS011;63641;46.526;24.612;2023-05-17T05:44:38;2.53;;;1.70;;
75061;SDS011;63641;46.526;24.612;2023-05-17T05:47:04;2.80;;;1.67;;
75061;SDS011;63641;46.526;24.612;2023-05-17T05:49:32;3.08;;;2.40;;
75061;SDS011;63641;46.526;24.612;2023-05-17T05:51:58;5.65;;;2.42;;
75061;SDS011;63641;46.526;24.612;2023-05-17T05:54:25;6.43;;;2.50;;
75061;SDS011;63641;46.526;24.612;2023-05-17T05:56:52;2.72;;;2.38;;
75061;SDS011;63641;46.526;24.612;2023-05-17T05:59:19;2.97;;;2.10;;
75061;SDS011;63641;46.526;24.612;2023-05-17T06:01:46;4.53;;;2.40;;
75061;SDS011;63641;46.526;24.612;2023-05-17T06:04:13;3.45;;;2.33;;
75061;SDS011;63641;46.526;24.612;2023-05-17T06:06:40;4.03;;;2.40;;
75061;SDS011;63641;46.526;24.612;2023-05-17T06:09:07;4.45;;;2.53;;
75061;SDS011;63641;46.526;24.612;2023-05-17T06:11:37;3.78;;;2.30;;
75061;SDS011;63641;46.526;24.612;2023-05-17T06:14:04;2.92;;;2.13;;
75061;SDS011;63641;46.526;24.612;2023-05-17T06:16:31;3.92;;;2.10;;
75061;SDS011;63641;46.526;24.612;2023-05-17T06:18:58;5.68;;;1.90;;
75061;SDS011;63641;46.526;24.612;2023-05-17T06:21:25;4.00;;;1.88;;
75061;SDS011;63641;46.526;24.612;2023-05-17T06:23:52;2.33;;;1.52;;
75061;SDS011;63641;46.526;24.612;2023-05-17T06:26:19;4.05;;;1.60;;
75061;SDS011;63641;46.526;24.612;2023-05-17T06:28:45;2.55;;;1.60;;
75061;SDS011;63641;46.526;24.612;2023-05-17T06:31:12;4.68;;;1.40;;
75061;SDS011;63641;46.526;24.612;2023-05-17T06:33:39;1.40;;;1.30;;
75061;SDS011;63641;46.526;24.612;2023-05-17T06:36:06;1.42;;;1.33;;
75061;SDS011;63641;46.526;24.612;2023-05-17T06:38:33;1.50;;;1.40;;
75061;SDS011;63641;46.526;24.612;2023-05-17T06:41:00;2.53;;;1.27;;
75061;SDS011;63641;46.526;24.612;2023-05-17T06:43:26;4.40;;;1.90;;
75061;SDS011;63641;46.526;24.612;2023-05-17T06:45:53;1.98;;;1.40;;
75061;SDS011;63641;46.526;24.612;2023-05-17T06:48:20;2.65;;;1.10;;
75061;SDS011;63641;46.526;24.612;2023-05-17T06:50:47;2.45;;;1.15;;
75061;SDS011;63641;46.526;24.612;2023-05-17T06:53:13;1.50;;;1.40;;
75061;SDS011;63641;46.526;24.612;2023-05-17T06:55:40;2.60;;;1.13;;
75061;SDS011;63641;46.526;24.612;2023-05-17T06:58:08;1.55;;;1.20;;
75061;SDS011;63641;46.526;24.612;2023-05-17T07:00:35;1.10;;;1.00;;
75061;SDS011;63641;46.526;24.612;2023-05-17T07:03:02;3.80;;;1.70;;
75061;SDS011;63641;46.526;24.612;2023-05-17T07:05:29;3.10;;;1.20;;
75061;SDS011;63641;46.526;24.612;2023-05-17T07:07:59;2.38;;;1.38;;
75061;SDS011;63641;46.526;24.612;2023-05-17T07:10:26;2.95;;;1.20;;
75061;SDS011;63641;46.526;24.612;2023-05-17T07:12:52;5.20;;;1.77;;
75061;SDS011;63641;46.526;24.612;2023-05-17T07:15:19;4.80;;;1.50;;
75061;SDS011;63641;46.526;24.612;2023-05-17T07:17:46;5.30;;;1.52;;
75061;SDS011;63641;46.526;24.612;2023-05-17T07:20:13;1.75;;;1.33;;
75061;SDS011;63641;46.526;24.612;2023-05-17T07:22:40;2.95;;;1.40;;
75061;SDS011;63641;46.526;24.612;2023-05-17T07:25:07;3.67;;;1.38;;
75061;SDS011;63641;46.526;24.612;2023-05-17T07:27:34;1.15;;;1.00;;
75061;SDS011;63641;46.526;24.612;2023-05-17T07:30:01;1.45;;;1.15;;
75061;SDS011;63641;46.526;24.612;2023-05-17T07:32:29;1.40;;;1.30;;
75061;SDS011;63641;46.526;24.612;2023-05-17T07:34:56;1.60;;;1.20;;
75061;SDS011;63641;46.526;24.612;2023-05-17T07:37:22;4.47;;;1.20;;
75061;SDS011;63641;46.526;24.612;2023-05-17T07:39:49;1.20;;;1.10;;
75061;SDS011;63641;46.526;24.612;2023-05-17T07:42:16;1.45;;;1.30;;
75061;SDS011;63641;46.526;24.612;2023-05-17T07:44:43;2.78;;;1.30;;
75061;SDS011;63641;46.526;24.612;2023-05-17T07:47:10;1.88;;;1.50;;
75061;SDS011;63641;46.526;24.612;2023-05-17T07:49:37;2.65;;;1.20;;
75061;SDS011;63641;46.526;24.612;2023-05-17T07:52:03;4.63;;;1.30;;
75061;SDS011;63641;46.526;24.612;2023-05-17T07:54:30;2.38;;;1.33;;
75061;SDS011;63641;46.526;24.612;2023-05-17T07:56:57;1.85;;;1.20;;
75061;SDS011;63641;46.526;24.612;2023-05-17T07:59:25;3.05;;;1.60;;
75061;SDS011;63641;46.526;24.612;2023-05-17T08:01:52;3.08;;;1.30;;
75061;SDS011;63641;46.526;24.612;2023-05-17T08:04:19;1.10;;;1.00;;
75061;SDS011;63641;46.526;24.612;2023-05-17T08:06:46;1.80;;;1.20;;
75061;SDS011;63641;46.526;24.612;2023-05-17T08:09:14;2.80;;;1.30;;
75061;SDS011;63641;46.526;24.612;2023-05-17T08:11:41;2.10;;;1.27;;
75061;SDS011;63641;46.526;24.612;2023-05-17T08:14:12;3.15;;;1.63;;
75061;SDS011;63641;46.526;24.612;2023-05-17T08:16:41;2.25;;;1.30;;
75061;SDS011;63641;46.526;24.612;2023-05-17T08:19:11;2.65;;;1.50;;
75061;SDS011;63641;46.526;24.612;2023-05-17T08:21:39;2.45;;;1.35;;
75061;SDS011;63641;46.526;24.612;2023-05-17T08:24:07;2.53;;;1.30;;
75061;SDS011;63641;46.526;24.612;2023-05-17T08:26:34;3.85;;;1.23;;
75061;SDS011;63641;46.526;24.612;2023-05-17T08:29:01;2.50;;;1.60;;
75061;SDS011;63641;46.526;24.612;2023-05-17T08:31:29;1.67;;;1.00;;
75061;SDS011;63641;46.526;24.612;2023-05-17T08:33:57;1.40;;;1.10;;
75061;SDS011;63641;46.526;24.612;2023-05-17T08:36:23;2.25;;;1.25;;
75061;SDS011;63641;46.526;24.612;2023-05-17T08:38:53;2.55;;;1.40;;
75061;SDS011;63641;46.526;24.612;2023-05-17T08:41:20;3.80;;;1.40;;
75061;SDS011;63641;46.526;24.612;2023-05-17T08:43:47;3.30;;;1.30;;
75061;SDS011;63641;46.526;24.612;2023-05-17T08:46:15;4.47;;;1.38;;
75061;SDS011;63641;46.526;24.612;2023-05-17T08:48:48;3.53;;;1.48;;
75061;SDS011;63641;46.526;24.612;2023-05-17T08:51:18;1.45;;;1.20;;
75061;SDS011;63641;46.526;24.612;2023-05-17T08:53:46;3.70;;;1.75;;
75061;SDS011;63641;46.526;24.612;2023-05-17T08:56:16;2.28;;;1.80;;
75061;SDS011;63641;46.526;24.612;2023-05-17T08:58:45;2.35;;;2.08;;
75061;SDS011;63641;46.526;24.612;2023-05-17T09:01:16;3.00;;;2.20;;
75061;SDS011;63641;46.526;24.612;2023-05-17T09:03:47;3.33;;;1.90;;
75061;SDS011;63641;46.526;24.612;2023-05-17T09:06:21;3.88;;;1.70;;
75061;SDS011;63641;46.526;24.612;2023-05-17T09:08:49;4.07;;;2.10;;
75061;SDS011;63641;46.526;24.612;2023-05-17T09:11:30;4.03;;;2.13;;
75061;SDS011;63641;46.526;24.612;2023-05-17T09:14:04;2.40;;;2.00;;
75061;SDS011;63641;46.526;24.612;2023-05-17T09:16:35;4.32;;;2.40;;
75061;SDS011;63641;46.526;24.612;2023-05-17T09:19:03;3.72;;;2.20;;
75061;SDS011;63641;46.526;24.612;2023-05-17T09:21:31;6.50;;;2.28;;
75061;SDS011;63641;46.526;24.612;2023-05-17T09:24:00;3.42;;;2.83;;
75061;SDS011;63641;46.526;24.612;2023-05-17T09:26:37;1.90;;;1.80;;
75061;SDS011;63641;46.526;24.612;2023-05-17T09:29:12;3.25;;;1.83;;
75061;SDS011;63641;46.526;24.612;2023-05-17T09:31:41;2.20;;;2.00;;
75061;SDS011;63641;46.526;24.612;2023-05-17T09:34:09;4.20;;;2.00;;
75061;SDS011;63641;46.526;24.612;2023-05-17T09:36:37;2.42;;;2.00;;
75061;SDS011;63641;46.526;24.612;2023-05-17T09:39:07;3.92;;;2.47;;
75061;SDS011;63641;46.526;24.612;2023-05-17T09:41:41;2.90;;;2.40;;
75061;SDS011;63641;46.526;24.612;2023-05-17T09:44:16;2.55;;;2.08;;
75061;SDS011;63641;46.526;24.612;2023-05-17T09:46:43;2.97;;;2.00;;
75061;SDS011;63641;46.526;24.612;2023-05-17T09:49:13;1.70;;;1.60;;
75061;SDS011;63641;46.526;24.612;2023-05-17T09:51:41;3.05;;;1.88;;
75061;SDS011;63641;46.526;24.612;2023-05-17T09:54:09;2.22;;;2.03;;
75061;SDS011;63641;46.526;24.612;2023-05-17T09:56:36;2.03;;;1.83;;
75061;SDS011;63641;46.526;24.612;2023-05-17T09:59:09;2.35;;;1.83;;
75061;SDS011;63641;46.526;24.612;2023-05-17T10:01:40;2.83;;;1.90;;
75061;SDS011;63641;46.526;24.612;2023-05-17T10:04:09;2.13;;;1.95;;
75061;SDS011;63641;46.526;24.612;2023-05-17T10:06:38;3.33;;;1.95;;
75061;SDS011;63641;46.526;24.612;2023-05-17T10:09:09;2.25;;;1.90;;
75061;SDS011;63641;46.526;24.612;2023-05-17T10:11:39;4.80;;;2.40;;
75061;SDS011;63641;46.526;24.612;2023-05-17T10:14:21;2.50;;;2.10;;
75061;SDS011;63641;46.526;24.612;2023-05-17T10:16:52;3.70;;;1.80;;
75061;SDS011;63641;46.526;24.612;2023-05-17T10:19:20;2.97;;;1.90;;
75061;SDS011;63641;46.526;24.612;2023-05-17T10:21:47;3.35;;;2.55;;
75061;SDS011;63641;46.526;24.612;2023-05-17T10:24:16;4.00;;;3.13;;
75061;SDS011;63641;46.526;24.612;2023-05-17T10:26:45;3.33;;;2.88;;
75061;SDS011;63641;46.526;24.612;2023-05-17T10:29:17;3.72;;;2.65;;
75061;SDS011;63641;46.526;24.612;2023-05-17T10:31:46;3.33;;;3.03;;
75061;SDS011;63641;46.526;24.612;2023-05-17T10:34:19;3.63;;;3.33;;
75061;SDS011;63641;46.526;24.612;2023-05-17T10:36:47;5.32;;;4.18;;
75061;SDS011;63641;46.526;24.612;2023-05-17T10:39:15;6.05;;;4.07;;
75061;SDS011;63641;46.526;24.612;2023-05-17T10:41:42;7.05;;;5.63;;
75061;SDS011;63641;46.526;24.612;2023-05-17T10:44:12;4.90;;;3.50;;
75061;SDS011;63641;46.526;24.612;2023-05-17T10:46:50;3.33;;;3.00;;
75061;SDS011;63641;46.526;24.612;2023-05-17T10:49:25;5.07;;;3.42;;
75061;SDS011;63641;46.526;24.612;2023-05-17T10:51:56;5.18;;;3.55;;
75061;SDS011;63641;46.526;24.612;2023-05-17T10:54:34;6.43;;;3.95;;
75061;SDS011;63641;46.526;24.612;2023-05-17T10:57:05;4.88;;;3.63;;
75061;SDS011;63641;46.526;24.612;2023-05-17T10:59:34;6.57;;;3.60;;
75061;SDS011;63641;46.526;24.612;2023-05-17T11:02:04;5.50;;;3.42;;
75061;SDS011;63641;46.526;24.612;2023-05-17T11:09:42;5.68;;;3.80;;
75061;SDS011;63641;46.526;24.612;2023-05-17T11:12:11;9.50;;;5.95;;
75061;SDS011;63641;46.526;24.612;2023-05-17T11:17:22;3.95;;;3.55;;
75061;SDS011;63641;46.526;24.612;2023-05-17T11:20:08;4.88;;;3.53;;
75061;SDS011;63641;46.526;24.612;2023-05-17T11:22:56;5.45;;;3.50;;
75061;SDS011;63641;46.526;24.612;2023-05-17T11:25:27;5.50;;;3.55;;
75061;SDS011;63641;46.526;24.612;2023-05-17T11:27:56;4.72;;;3.35;;
75061;SDS011;63641;46.526;24.612;2023-05-17T11:32:59;3.67;;;2.80;;
75061;SDS011;63641;46.526;24.612;2023-05-17T11:35:30;3.50;;;3.20;;
75061;SDS011;63641;46.526;24.612;2023-05-17T11:38:11;4.25;;;3.25;;
75061;SDS011;63641;46.526;24.612;2023-05-17T11:40:47;4.93;;;3.55;;
75061;SDS011;63641;46.526;24.612;2023-05-17T11:43:16;3.47;;;3.17;;
75061;SDS011;63641;46.526;24.612;2023-05-17T11:45:46;4.13;;;3.30;;
75061;SDS011;63641;46.526;24.612;2023-05-17T11:50:49;5.32;;;3.65;;
75061;SDS011;63641;46.526;24.612;2023-05-17T11:53:18;7.18;;;3.70;;
75061;SDS011;63641;46.526;24.612;2023-05-17T11:55:46;5.35;;;3.35;;
75061;SDS011;63641;46.526;24.612;2023-05-17T11:58:16;4.43;;;3.40;;
75061;SDS011;63641;46.526;24.612;2023-05-17T12:00:45;6.40;;;3.63;;
75061;SDS011;63641;46.526;24.612;2023-05-17T12:03:19;3.97;;;3.47;;
75061;SDS011;63641;46.526;24.612;2023-05-17T12:05:48;5.32;;;3.30;;
75061;SDS011;63641;46.526;24.612;2023-05-17T12:08:17;4.35;;;2.85;;
75061;SDS011;63641;46.526;24.612;2023-05-17T12:10:49;4.97;;;3.08;;
75061;SDS011;63641;46.526;24.612;2023-05-17T12:13:17;4.45;;;3.20;;
75061;SDS011;63641;46.526;24.612;2023-05-17T12:16:20;3.63;;;3.33;;
75061;SDS011;63641;46.526;24.612;2023-05-17T12:18:44;5.82;;;3.45;;
75061;SDS011;63641;46.526;24.612;2023-05-17T12:21:13;4.15;;;3.72;;
75061;SDS011;63641;46.526;24.612;2023-05-17T12:23:41;5.53;;;3.50;;
75061;SDS011;63641;46.526;24.612;2023-05-17T12:26:10;7.43;;;3.63;;
75061;SDS011;63641;46.526;24.612;2023-05-17T12:28:40;4.15;;;3.75;;
75061;SDS011;63641;46.526;24.612;2023-05-17T12:31:13;3.78;;;3.30;;
75061;SDS011;63641;46.526;24.612;2023-05-17T12:33:43;5.60;;;3.85;;
75061;SDS011;63641;46.526;24.612;2023-05-17T12:36:13;4.22;;;3.83;;
75061;SDS011;63641;46.526;24.612;2023-05-17T12:38:40;4.63;;;3.50;;
75061;SDS011;63641;46.526;24.612;2023-05-17T12:41:13;4.85;;;3.28;;
75061;SDS011;63641;46.526;24.612;2023-05-17T12:43:42;5.80;;;3.22;;
75061;SDS011;63641;46.526;24.612;2023-05-17T12:46:17;5.75;;;3.60;;
75061;SDS011;63641;46.526;24.612;2023-05-17T12:48:46;3.30;;;3.00;;
75061;SDS011;63641;46.526;24.612;2023-05-17T12:51:16;3.28;;;2.97;;
75061;SDS011;63641;46.526;24.612;2023-05-17T12:53:54;3.58;;;2.90;;
75061;SDS011;63641;46.526;24.612;2023-05-17T12:56:22;3.42;;;2.72;;
75061;SDS011;63641;46.526;24.612;2023-05-17T13:01:40;3.42;;;2.90;;
75061;SDS011;63641;46.526;24.612;2023-05-17T13:04:14;3.55;;;2.83;;
75061;SDS011;63641;46.526;24.612;2023-05-17T13:09:16;5.72;;;3.13;;
75061;SDS011;63641;46.526;24.612;2023-05-17T13:11:51;4.00;;;3.13;;
75061;SDS011;63641;46.526;24.612;2023-05-17T13:14:38;3.83;;;3.30;;
75061;SDS011;63641;46.526;24.612;2023-05-17T13:17:09;4.63;;;4.05;;
75061;SDS011;63641;46.526;24.612;2023-05-17T13:19:37;6.75;;;4.93;;
75061;SDS011;63641;46.526;24.612;2023-05-17T13:22:05;6.38;;;4.53;;
75061;SDS011;63641;46.526;24.612;2023-05-17T13:24:35;6.05;;;4.72;;
75061;SDS011;63641;46.526;24.612;2023-05-17T13:27:03;5.88;;;4.68;;
75061;SDS011;63641;46.526;24.612;2023-05-17T13:29:31;5.35;;;4.63;;
75061;SDS011;63641;46.526;24.612;2023-05-17T13:32:06;6.28;;;4.53;;
75061;SDS011;63641;46.526;24.612;2023-05-17T13:34:33;5.97;;;4.25;;
75061;SDS011;63641;46.526;24.612;2023-05-17T13:37:01;3.65;;;3.13;;
75061;SDS011;63641;46.526;24.612;2023-05-17T13:39:28;4.72;;;3.25;;
75061;SDS011;63641;46.526;24.612;2023-05-17T13:41:55;4.30;;;3.17;;
75061;SDS011;63641;46.526;24.612;2023-05-17T13:44:21;2.90;;;2.42;;
75061;SDS011;63641;46.526;24.612;2023-05-17T13:46:48;2.58;;;2.38;;
75061;SDS011;63641;46.526;24.612;2023-05-17T13:49:15;5.15;;;2.90;;
75061;SDS011;63641;46.526;24.612;2023-05-17T13:51:42;3.67;;;2.83;;
75061;SDS011;63641;46.526;24.612;2023-05-17T13:54:10;4.90;;;3.20;;
75061;SDS011;63641;46.526;24.612;2023-05-17T13:56:36;2.80;;;2.47;;
75061;SDS011;63641;46.526;24.612;2023-05-17T13:59:03;2.53;;;2.33;;
75061;SDS011;63641;46.526;24.612;2023-05-17T14:01:30;3.30;;;2.47;;
75061;SDS011;63641;46.526;24.612;2023-05-17T14:03:56;4.57;;;2.38;;
75061;SDS011;63641;46.526;24.612;2023-05-17T14:06:24;3.00;;;2.63;;
75061;SDS011;63641;46.526;24.612;2023-05-17T14:08:51;4.47;;;2.85;;
75061;SDS011;63641;46.526;24.612;2023-05-17T14:11:19;2.65;;;2.45;;
75061;SDS011;63641;46.526;24.612;2023-05-17T14:13:46;3.40;;;3.03;;
75061;SDS011;63641;46.526;24.612;2023-05-17T14:16:15;2.85;;;2.63;;
75061;SDS011;63641;46.526;24.612;2023-05-17T14:18:42;5.88;;;2.53;;
75061;SDS011;63641;46.526;24.612;2023-05-17T14:21:09;3.25;;;2.95;;
75061;SDS011;63641;46.526;24.612;2023-05-17T14:23:36;2.83;;;2.63;;
75061;SDS011;63641;46.526;24.612;2023-05-17T14:26:03;3.80;;;2.63;;
75061;SDS011;63641;46.526;24.612;2023-05-17T14:28:32;2.80;;;2.50;;
75061;SDS011;63641;46.526;24.612;2023-05-17T14:31:06;3.53;;;2.42;;
75061;SDS011;63641;46.526;24.612;2023-05-17T14:33:34;3.50;;;2.75;;
75061;SDS011;63641;46.526;24.612;2023-05-17T14:36:01;4.40;;;3.10;;
75061;SDS011;63641;46.526;24.612;2023-05-17T14:38:29;3.20;;;2.90;;
75061;SDS011;63641;46.526;24.612;2023-05-17T14:40:56;3.25;;;2.75;;
75061;SDS011;63641;46.526;24.612;2023-05-17T14:43:25;3.08;;;2.72;;
75061;SDS011;63641;46.526;24.612;2023-05-17T14:45:52;3.95;;;3.55;;
75061;SDS011;63641;46.526;24.612;2023-05-17T14:48:19;4.35;;;3.78;;
75061;SDS011;63641;46.526;24.612;2023-05-17T14:50:46;3.97;;;3.67;;
75061;SDS011;63641;46.526;24.612;2023-05-17T14:53:13;3.22;;;2.92;;
75061;SDS011;63641;46.526;24.612;2023-05-17T14:55:40;3.30;;;2.72;;
75061;SDS011;63641;46.526;24.612;2023-05-17T14:58:06;2.97;;;2.60;;
75061;SDS011;63641;46.526;24.612;2023-05-17T15:00:33;2.92;;;2.72;;
75061;SDS011;63641;46.526;24.612;2023-05-17T15:03:00;2.95;;;2.67;;
75061;SDS011;63641;46.526;24.612;2023-05-17T15:05:27;3.10;;;2.88;;
75061;SDS011;63641;46.526;24.612;2023-05-17T15:07:54;3.45;;;2.78;;
75061;SDS011;63641;46.526;24.612;2023-05-17T15:10:21;6.22;;;3.10;;
75061;SDS011;63641;46.526;24.612;2023-05-17T15:12:49;4.55;;;2.60;;
75061;SDS011;63641;46.526;24.612;2023-05-17T15:15:15;5.28;;;2.90;;
75061;SDS011;63641;46.526;24.612;2023-05-17T15:17:43;3.03;;;2.67;;